Un Karadeniz — TCTD3 — position and weather

sailwx.info

Track history (hours):
 
Tides and Currents Weather Stations Pressure Air Temp Water Temp Dewpoint Dewpoint Depression Visibility Wind Speed Wind Dir Waves Ship Positions

Un Karadeniz

Last reported at 2015-Jan-31 05:14 UTC. Time now 2015-Jan-31 16:11 UTC.
Position N 38°47' E 015°02'.

Length 193 m; draft 6.2 m.

Type: Ship (hazmat cat A). MMSI: 271002571.

Date/timePositionNaut miles runAvg speedWind from/ knotsBaromVisibWave heightAir tempDewpointWater temp
2015-Jan-31 05:14N 38°47' E 015°02'1217.2
2015-Jan-31 04:33N 38°41' E 015°14'1818.4
2015-Jan-31 03:33N 38°28' E 015°31'1513.9
2015-Jan-31 02:30N 38°15' E 015°38'1717.6
2015-Jan-31 01:33N 37°58' E 015°38'1817.5
2015-Jan-31 00:33N 37°49' E 015°57'60814.8
2015-Jan-29 07:32N 40°51' E 028°28'1919.1
2015-Jan-29 06:32N 40°51' E 028°53'1717.6
2015-Jan-29 05:33N 40°51' E 029°16'0 0.5
2015-Jan-29 04:34N 40°51' E 029°16'0 0.0
2015-Jan-29 03:34N 40°51' E 029°16'0 0.0
2015-Jan-29 02:33N 40°51' E 029°16'0 0.0
2015-Jan-29 01:34N 40°51' E 029°16'0 0.0
2015-Jan-29 00:34N 40°51' E 029°16'0 0.0
2015-Jan-28 23:33N 40°51' E 029°16'0 0.0
2015-Jan-28 22:33N 40°51' E 029°16'0 0.0
2015-Jan-28 21:33N 40°51' E 029°16'0 0.1
2015-Jan-28 20:33N 40°51' E 029°16'8 8.2
2015-Jan-28 19:33N 40°48' E 029°06'1818.1
2015-Jan-28 18:33N 40°49' E 028°42'9318.6
2015-Jan-28 13:33N 40°25' E 026°44'4714.8
2015-Jan-28 10:25N 39°55' E 025°57'2016.1
2015-Jan-28 09:12N 39°38' E 025°45'  
2015-Jan-25 21:33N 42°33' E 006°48'1917.7
2015-Jan-25 20:28N 42°45' E 006°27'3216.5
2015-Jan-25 18:33N 43°06' E 005°55'1 1.1
2015-Jan-25 17:33N 43°06' E 005°54'0 0.0
2015-Jan-25 16:31N 43°06' E 005°54'0 0.0
2015-Jan-25 15:31N 43°06' E 005°54'0 0.0
2015-Jan-25 14:31N 43°06' E 005°54'0 0.0
2015-Jan-25 13:33N 43°06' E 005°54'0 0.0
2015-Jan-25 12:33N 43°06' E 005°54'0 0.0
2015-Jan-25 11:32N 43°06' E 005°54'0 0.0
2015-Jan-25 10:32N 43°06' E 005°54'0 0.0
2015-Jan-25 09:31N 43°06' E 005°54'0 0.0
2015-Jan-25 08:31N 43°06' E 005°54'0 0.0
2015-Jan-25 07:31N 43°06' E 005°54'0 0.3
2015-Jan-25 06:33N 43°06' E 005°54'50018.5
2015-Jan-24 03:30N 38°40' E 015°14'1919.9
2015-Jan-24 02:32N 38°28' E 015°32'1412.5
2015-Jan-24 01:25N 38°15' E 015°38'1112.9
2015-Jan-24 00:33N 38°04' E 015°35'1412.7
2015-Jan-23 23:26N 37°52' E 015°46'  
2015-Jan-21 14:27N 40°25' E 026°44'4714.3
2015-Jan-21 11:11N 39°55' E 025°57'1918.6
2015-Jan-21 10:09N 39°38' E 025°45'  
Track history (hours):
 
Tides and Currents Weather Stations Pressure Air Temp Water Temp Dewpoint Dewpoint Depression Visibility Wind Speed Wind Dir Waves Ship Positions

Un Karadeniz

Last reported at 2015-Jan-31 05:14 UTC. Time now 2015-Jan-31 16:11 UTC.
Position N 38°47' E 015°02'.

Length 193 m; draft 6.2 m.

Type: Ship (hazmat cat A). MMSI: 271002571.

Date/timePositionNaut miles runAvg speedWind from/ knotsBaromVisibWave heightAir tempDewpointWater temp
2015-Jan-31 05:14N 38°47' E 015°02'1217.2
2015-Jan-31 04:33N 38°41' E 015°14'1818.4
2015-Jan-31 03:33N 38°28' E 015°31'1513.9
2015-Jan-31 02:30N 38°15' E 015°38'1717.6
2015-Jan-31 01:33N 37°58' E 015°38'1817.5
2015-Jan-31 00:33N 37°49' E 015°57'60814.8
2015-Jan-29 07:32N 40°51' E 028°28'1919.1
2015-Jan-29 06:32N 40°51' E 028°53'1717.6
2015-Jan-29 05:33N 40°51' E 029°16'0 0.5
2015-Jan-29 04:34N 40°51' E 029°16'0 0.0
2015-Jan-29 03:34N 40°51' E 029°16'0 0.0
2015-Jan-29 02:33N 40°51' E 029°16'0 0.0
2015-Jan-29 01:34N 40°51' E 029°16'0 0.0
2015-Jan-29 00:34N 40°51' E 029°16'0 0.0
2015-Jan-28 23:33N 40°51' E 029°16'0 0.0
2015-Jan-28 22:33N 40°51' E 029°16'0 0.0
2015-Jan-28 21:33N 40°51' E 029°16'0 0.1
2015-Jan-28 20:33N 40°51' E 029°16'8 8.2
2015-Jan-28 19:33N 40°48' E 029°06'1818.1
2015-Jan-28 18:33N 40°49' E 028°42'9318.6
2015-Jan-28 13:33N 40°25' E 026°44'4714.8
2015-Jan-28 10:25N 39°55' E 025°57'2016.1
2015-Jan-28 09:12N 39°38' E 025°45'  
2015-Jan-25 21:33N 42°33' E 006°48'1917.7
2015-Jan-25 20:28N 42°45' E 006°27'3216.5
2015-Jan-25 18:33N 43°06' E 005°55'1 1.1
2015-Jan-25 17:33N 43°06' E 005°54'0 0.0
2015-Jan-25 16:31N 43°06' E 005°54'0 0.0
2015-Jan-25 15:31N 43°06' E 005°54'0 0.0
2015-Jan-25 14:31N 43°06' E 005°54'0 0.0
2015-Jan-25 13:33N 43°06' E 005°54'0 0.0
2015-Jan-25 12:33N 43°06' E 005°54'0 0.0
2015-Jan-25 11:32N 43°06' E 005°54'0 0.0
2015-Jan-25 10:32N 43°06' E 005°54'0 0.0
2015-Jan-25 09:31N 43°06' E 005°54'0 0.0
2015-Jan-25 08:31N 43°06' E 005°54'0 0.0
2015-Jan-25 07:31N 43°06' E 005°54'0 0.3
2015-Jan-25 06:33N 43°06' E 005°54'50018.5
2015-Jan-24 03:30N 38°40' E 015°14'1919.9
2015-Jan-24 02:32N 38°28' E 015°32'1412.5
2015-Jan-24 01:25N 38°15' E 015°38'1112.9
2015-Jan-24 00:33N 38°04' E 015°35'1412.7
2015-Jan-23 23:26N 37°52' E 015°46'  
2015-Jan-21 14:27N 40°25' E 026°44'4714.3
2015-Jan-21 11:11N 39°55' E 025°57'1918.6
2015-Jan-21 10:09N 39°38' E 025°45'  

Dump ship's entire track history